sensor_id;sensor_type;location;lat;lon;timestamp;P1;durP1;ratioP1;P2;durP2;ratioP2
20241;SDS011;10279;46.388;8.116;2023-04-15T00:01:06;2.60;;;0.90;;
20241;SDS011;10279;46.388;8.116;2023-04-15T00:03:34;0.90;;;0.60;;
20241;SDS011;10279;46.388;8.116;2023-04-15T00:06:02;0.60;;;0.30;;
20241;SDS011;10279;46.388;8.116;2023-04-15T00:08:30;0.33;;;0.30;;
20241;SDS011;10279;46.388;8.116;2023-04-15T00:10:57;1.60;;;0.40;;
20241;SDS011;10279;46.388;8.116;2023-04-15T00:13:31;0.97;;;0.57;;
20241;SDS011;10279;46.388;8.116;2023-04-15T00:15:59;0.90;;;0.60;;
20241;SDS011;10279;46.388;8.116;2023-04-15T00:18:27;3.03;;;0.40;;
20241;SDS011;10279;46.388;8.116;2023-04-15T00:20:55;0.80;;;0.47;;
20241;SDS011;10279;46.388;8.116;2023-04-15T00:23:23;0.77;;;0.50;;
20241;SDS011;10279;46.388;8.116;2023-04-15T00:25:50;0.93;;;0.60;;
20241;SDS011;10279;46.388;8.116;2023-04-15T00:28:17;2.20;;;0.60;;
20241;SDS011;10279;46.388;8.116;2023-04-15T00:30:45;2.00;;;0.57;;
20241;SDS011;10279;46.388;8.116;2023-04-15T00:33:13;1.80;;;0.40;;
20241;SDS011;10279;46.388;8.116;2023-04-15T00:35:41;1.57;;;0.50;;
20241;SDS011;10279;46.388;8.116;2023-04-15T00:38:09;2.17;;;0.77;;
20241;SDS011;10279;46.388;8.116;2023-04-15T00:40:36;0.83;;;0.57;;
20241;SDS011;10279;46.388;8.116;2023-04-15T00:43:07;0.70;;;0.60;;
20241;SDS011;10279;46.388;8.116;2023-04-15T00:45:34;0.40;;;0.37;;
20241;SDS011;10279;46.388;8.116;2023-04-15T00:48:02;1.53;;;0.50;;
20241;SDS011;10279;46.388;8.116;2023-04-15T00:50:31;1.43;;;0.40;;
20241;SDS011;10279;46.388;8.116;2023-04-15T00:52:59;0.30;;;0.30;;
20241;SDS011;10279;46.388;8.116;2023-04-15T00:55:26;0.57;;;0.50;;
20241;SDS011;10279;46.388;8.116;2023-04-15T00:57:54;0.97;;;0.40;;
20241;SDS011;10279;46.388;8.116;2023-04-15T01:00:22;0.87;;;0.40;;
20241;SDS011;10279;46.388;8.116;2023-04-15T01:02:50;1.17;;;0.87;;
20241;SDS011;10279;46.388;8.116;2023-04-15T01:05:18;1.67;;;0.40;;
20241;SDS011;10279;46.388;8.116;2023-04-15T01:07:46;1.50;;;0.40;;
20241;SDS011;10279;46.388;8.116;2023-04-15T01:10:14;0.90;;;0.50;;
20241;SDS011;10279;46.388;8.116;2023-04-15T01:12:42;0.97;;;0.40;;
20241;SDS011;10279;46.388;8.116;2023-04-15T01:15:10;2.87;;;0.50;;
20241;SDS011;10279;46.388;8.116;2023-04-15T01:17:37;1.10;;;0.50;;
20241;SDS011;10279;46.388;8.116;2023-04-15T01:20:05;1.30;;;0.47;;
20241;SDS011;10279;46.388;8.116;2023-04-15T01:22:35;0.73;;;0.50;;
20241;SDS011;10279;46.388;8.116;2023-04-15T01:25:05;0.67;;;0.50;;
20241;SDS011;10279;46.388;8.116;2023-04-15T01:27:33;1.93;;;0.50;;
20241;SDS011;10279;46.388;8.116;2023-04-15T01:30:01;0.67;;;0.43;;
20241;SDS011;10279;46.388;8.116;2023-04-15T01:32:30;1.80;;;0.50;;
20241;SDS011;10279;46.388;8.116;2023-04-15T01:34:58;0.33;;;0.30;;
20241;SDS011;10279;46.388;8.116;2023-04-15T01:37:25;0.90;;;0.43;;
20241;SDS011;10279;46.388;8.116;2023-04-15T01:39:53;0.30;;;0.30;;
20241;SDS011;10279;46.388;8.116;2023-04-15T01:42:22;0.97;;;0.47;;
20241;SDS011;10279;46.388;8.116;2023-04-15T01:44:50;2.07;;;0.60;;
20241;SDS011;10279;46.388;8.116;2023-04-15T01:47:19;0.50;;;0.50;;
20241;SDS011;10279;46.388;8.116;2023-04-15T01:49:47;0.37;;;0.37;;
20241;SDS011;10279;46.388;8.116;2023-04-15T01:52:14;0.57;;;0.50;;
20241;SDS011;10279;46.388;8.116;2023-04-15T01:54:41;2.27;;;0.57;;
20241;SDS011;10279;46.388;8.116;2023-04-15T01:57:09;0.40;;;0.40;;
20241;SDS011;10279;46.388;8.116;2023-04-15T01:59:36;1.13;;;0.50;;
20241;SDS011;10279;46.388;8.116;2023-04-15T02:02:04;1.37;;;0.63;;
20241;SDS011;10279;46.388;8.116;2023-04-15T02:04:31;1.23;;;0.50;;
20241;SDS011;10279;46.388;8.116;2023-04-15T02:06:59;0.83;;;0.60;;
20241;SDS011;10279;46.388;8.116;2023-04-15T02:09:27;2.47;;;0.47;;
20241;SDS011;10279;46.388;8.116;2023-04-15T02:11:54;0.83;;;0.50;;
20241;SDS011;10279;46.388;8.116;2023-04-15T02:14:22;2.10;;;0.30;;
20241;SDS011;10279;46.388;8.116;2023-04-15T02:16:49;0.20;;;0.20;;
20241;SDS011;10279;46.388;8.116;2023-04-15T02:19:17;0.97;;;0.70;;
20241;SDS011;10279;46.388;8.116;2023-04-15T02:21:44;0.97;;;0.40;;
20241;SDS011;10279;46.388;8.116;2023-04-15T02:24:11;0.40;;;0.40;;
20241;SDS011;10279;46.388;8.116;2023-04-15T02:26:39;1.37;;;0.50;;
20241;SDS011;10279;46.388;8.116;2023-04-15T02:29:06;0.43;;;0.40;;
20241;SDS011;10279;46.388;8.116;2023-04-15T02:31:34;0.63;;;0.43;;
20241;SDS011;10279;46.388;8.116;2023-04-15T02:34:05;0.80;;;0.50;;
20241;SDS011;10279;46.388;8.116;2023-04-15T02:36:33;1.43;;;0.70;;
20241;SDS011;10279;46.388;8.116;2023-04-15T02:39:01;0.93;;;0.50;;
20241;SDS011;10279;46.388;8.116;2023-04-15T02:41:29;0.50;;;0.40;;
20241;SDS011;10279;46.388;8.116;2023-04-15T02:43:57;0.50;;;0.30;;
20241;SDS011;10279;46.388;8.116;2023-04-15T02:46:24;1.17;;;0.33;;
20241;SDS011;10279;46.388;8.116;2023-04-15T02:48:52;1.97;;;0.60;;
20241;SDS011;10279;46.388;8.116;2023-04-15T02:51:20;1.30;;;0.40;;
20241;SDS011;10279;46.388;8.116;2023-04-15T02:53:48;0.73;;;0.40;;
20241;SDS011;10279;46.388;8.116;2023-04-15T02:56:16;1.30;;;0.30;;
20241;SDS011;10279;46.388;8.116;2023-04-15T02:58:45;1.10;;;0.30;;
20241;SDS011;10279;46.388;8.116;2023-04-15T03:01:16;0.40;;;0.40;;
20241;SDS011;10279;46.388;8.116;2023-04-15T03:03:46;0.50;;;0.40;;
20241;SDS011;10279;46.388;8.116;2023-04-15T03:06:14;1.10;;;0.50;;
20241;SDS011;10279;46.388;8.116;2023-04-15T03:08:42;1.37;;;0.60;;
20241;SDS011;10279;46.388;8.116;2023-04-15T03:11:13;1.67;;;0.60;;
20241;SDS011;10279;46.388;8.116;2023-04-15T03:13:41;0.60;;;0.40;;
20241;SDS011;10279;46.388;8.116;2023-04-15T03:16:09;0.87;;;0.50;;
20241;SDS011;10279;46.388;8.116;2023-04-15T03:18:36;0.60;;;0.47;;
20241;SDS011;10279;46.388;8.116;2023-04-15T03:21:04;1.13;;;0.50;;
20241;SDS011;10279;46.388;8.116;2023-04-15T03:23:31;0.77;;;0.43;;
20241;SDS011;10279;46.388;8.116;2023-04-15T03:26:02;1.23;;;0.40;;
20241;SDS011;10279;46.388;8.116;2023-04-15T03:28:30;1.60;;;0.50;;
20241;SDS011;10279;46.388;8.116;2023-04-15T03:30:58;1.80;;;0.60;;
20241;SDS011;10279;46.388;8.116;2023-04-15T03:33:26;0.93;;;0.43;;
20241;SDS011;10279;46.388;8.116;2023-04-15T03:35:53;0.50;;;0.40;;
20241;SDS011;10279;46.388;8.116;2023-04-15T03:38:21;1.67;;;0.40;;
20241;SDS011;10279;46.388;8.116;2023-04-15T03:40:48;1.03;;;0.40;;
20241;SDS011;10279;46.388;8.116;2023-04-15T03:43:16;3.13;;;0.57;;
20241;SDS011;10279;46.388;8.116;2023-04-15T03:45:43;2.93;;;0.50;;
20241;SDS011;10279;46.388;8.116;2023-04-15T03:48:11;1.20;;;0.50;;
20241;SDS011;10279;46.388;8.116;2023-04-15T03:50:43;0.67;;;0.40;;
20241;SDS011;10279;46.388;8.116;2023-04-15T03:53:11;0.87;;;0.33;;
20241;SDS011;10279;46.388;8.116;2023-04-15T03:55:38;3.10;;;0.50;;
20241;SDS011;10279;46.388;8.116;2023-04-15T03:58:06;1.07;;;0.30;;
20241;SDS011;10279;46.388;8.116;2023-04-15T04:00:34;1.83;;;0.60;;
20241;SDS011;10279;46.388;8.116;2023-04-15T04:03:02;0.60;;;0.50;;
20241;SDS011;10279;46.388;8.116;2023-04-15T04:05:30;0.93;;;0.47;;
20241;SDS011;10279;46.388;8.116;2023-04-15T04:07:57;0.50;;;0.40;;
20241;SDS011;10279;46.388;8.116;2023-04-15T04:10:25;0.60;;;0.50;;
20241;SDS011;10279;46.388;8.116;2023-04-15T04:12:53;0.13;;;0.13;;
20241;SDS011;10279;46.388;8.116;2023-04-15T04:15:20;2.00;;;0.80;;
20241;SDS011;10279;46.388;8.116;2023-04-15T04:17:47;0.63;;;0.53;;
20241;SDS011;10279;46.388;8.116;2023-04-15T04:20:15;2.47;;;0.70;;
20241;SDS011;10279;46.388;8.116;2023-04-15T04:22:42;0.87;;;0.43;;
20241;SDS011;10279;46.388;8.116;2023-04-15T04:25:10;0.43;;;0.40;;
20241;SDS011;10279;46.388;8.116;2023-04-15T04:27:37;0.93;;;0.40;;
20241;SDS011;10279;46.388;8.116;2023-04-15T04:30:05;0.83;;;0.40;;
20241;SDS011;10279;46.388;8.116;2023-04-15T04:32:33;2.30;;;0.53;;
20241;SDS011;10279;46.388;8.116;2023-04-15T04:35:01;2.77;;;0.50;;
20241;SDS011;10279;46.388;8.116;2023-04-15T04:37:28;0.67;;;0.43;;
20241;SDS011;10279;46.388;8.116;2023-04-15T04:39:56;0.60;;;0.50;;
20241;SDS011;10279;46.388;8.116;2023-04-15T04:42:23;1.07;;;0.40;;
20241;SDS011;10279;46.388;8.116;2023-04-15T04:44:51;2.83;;;0.50;;
20241;SDS011;10279;46.388;8.116;2023-04-15T04:47:18;2.43;;;0.67;;
20241;SDS011;10279;46.388;8.116;2023-04-15T04:49:46;1.47;;;0.60;;
20241;SDS011;10279;46.388;8.116;2023-04-15T04:52:14;2.50;;;0.60;;
20241;SDS011;10279;46.388;8.116;2023-04-15T04:54:41;0.50;;;0.40;;
20241;SDS011;10279;46.388;8.116;2023-04-15T04:57:08;2.67;;;0.50;;
20241;SDS011;10279;46.388;8.116;2023-04-15T04:59:36;1.50;;;0.53;;
20241;SDS011;10279;46.388;8.116;2023-04-15T05:02:03;0.53;;;0.30;;
20241;SDS011;10279;46.388;8.116;2023-04-15T05:04:31;0.53;;;0.50;;
20241;SDS011;10279;46.388;8.116;2023-04-15T05:06:58;1.40;;;0.50;;
20241;SDS011;10279;46.388;8.116;2023-04-15T05:09:26;2.40;;;0.60;;
20241;SDS011;10279;46.388;8.116;2023-04-15T05:11:56;1.50;;;0.67;;
20241;SDS011;10279;46.388;8.116;2023-04-15T05:14:24;0.80;;;0.40;;
20241;SDS011;10279;46.388;8.116;2023-04-15T05:16:52;1.60;;;0.47;;
20241;SDS011;10279;46.388;8.116;2023-04-15T05:19:19;2.33;;;0.50;;
20241;SDS011;10279;46.388;8.116;2023-04-15T05:21:47;2.30;;;0.50;;
20241;SDS011;10279;46.388;8.116;2023-04-15T05:24:14;1.70;;;0.50;;
20241;SDS011;10279;46.388;8.116;2023-04-15T05:26:42;1.03;;;0.60;;
20241;SDS011;10279;46.388;8.116;2023-04-15T05:29:09;1.67;;;0.70;;
20241;SDS011;10279;46.388;8.116;2023-04-15T05:31:37;6.20;;;1.10;;
20241;SDS011;10279;46.388;8.116;2023-04-15T05:34:04;1.67;;;0.50;;
20241;SDS011;10279;46.388;8.116;2023-04-15T05:36:32;2.60;;;0.50;;
20241;SDS011;10279;46.388;8.116;2023-04-15T05:39:00;1.53;;;0.50;;
20241;SDS011;10279;46.388;8.116;2023-04-15T05:41:27;1.93;;;0.80;;
20241;SDS011;10279;46.388;8.116;2023-04-15T05:43:55;2.17;;;0.60;;
20241;SDS011;10279;46.388;8.116;2023-04-15T05:46:22;1.33;;;0.50;;
20241;SDS011;10279;46.388;8.116;2023-04-15T05:48:50;1.60;;;0.40;;
20241;SDS011;10279;46.388;8.116;2023-04-15T05:51:17;1.03;;;0.60;;
20241;SDS011;10279;46.388;8.116;2023-04-15T05:53:45;1.00;;;0.50;;
20241;SDS011;10279;46.388;8.116;2023-04-15T05:56:12;4.03;;;0.70;;
20241;SDS011;10279;46.388;8.116;2023-04-15T05:58:40;1.30;;;0.90;;
20241;SDS011;10279;46.388;8.116;2023-04-15T06:01:07;2.37;;;1.03;;
20241;SDS011;10279;46.388;8.116;2023-04-15T06:03:35;3.37;;;1.13;;
20241;SDS011;10279;46.388;8.116;2023-04-15T06:06:02;2.43;;;0.70;;
20241;SDS011;10279;46.388;8.116;2023-04-15T06:08:30;1.77;;;0.70;;
20241;SDS011;10279;46.388;8.116;2023-04-15T06:10:57;1.13;;;1.00;;
20241;SDS011;10279;46.388;8.116;2023-04-15T06:13:25;4.07;;;1.03;;
20241;SDS011;10279;46.388;8.116;2023-04-15T06:15:52;2.13;;;0.60;;
20241;SDS011;10279;46.388;8.116;2023-04-15T06:18:20;1.03;;;0.87;;
20241;SDS011;10279;46.388;8.116;2023-04-15T06:20:47;1.90;;;0.50;;
20241;SDS011;10279;46.388;8.116;2023-04-15T06:23:15;1.33;;;1.03;;
20241;SDS011;10279;46.388;8.116;2023-04-15T06:25:42;2.30;;;0.60;;
20241;SDS011;10279;46.388;8.116;2023-04-15T06:28:09;1.30;;;0.77;;
20241;SDS011;10279;46.388;8.116;2023-04-15T06:30:37;3.33;;;0.90;;
20241;SDS011;10279;46.388;8.116;2023-04-15T06:33:05;2.63;;;0.60;;
20241;SDS011;10279;46.388;8.116;2023-04-15T06:35:33;1.47;;;0.60;;
20241;SDS011;10279;46.388;8.116;2023-04-15T06:38:00;1.50;;;0.70;;
20241;SDS011;10279;46.388;8.116;2023-04-15T06:40:28;1.23;;;0.60;;
20241;SDS011;10279;46.388;8.116;2023-04-15T06:42:55;1.80;;;0.70;;
20241;SDS011;10279;46.388;8.116;2023-04-15T06:45:22;1.63;;;0.70;;
20241;SDS011;10279;46.388;8.116;2023-04-15T06:47:50;1.23;;;0.73;;
20241;SDS011;10279;46.388;8.116;2023-04-15T06:50:17;3.47;;;0.90;;
20241;SDS011;10279;46.388;8.116;2023-04-15T06:52:45;1.03;;;0.73;;
20241;SDS011;10279;46.388;8.116;2023-04-15T06:55:12;3.70;;;1.33;;
20241;SDS011;10279;46.388;8.116;2023-04-15T06:57:43;2.37;;;0.80;;
20241;SDS011;10279;46.388;8.116;2023-04-15T07:00:10;2.57;;;0.90;;
20241;SDS011;10279;46.388;8.116;2023-04-15T07:02:38;4.00;;;1.20;;
20241;SDS011;10279;46.388;8.116;2023-04-15T07:05:06;2.10;;;0.90;;
20241;SDS011;10279;46.388;8.116;2023-04-15T07:07:34;2.03;;;0.90;;
20241;SDS011;10279;46.388;8.116;2023-04-15T07:10:02;2.97;;;0.93;;
20241;SDS011;10279;46.388;8.116;2023-04-15T07:12:29;3.23;;;1.00;;
20241;SDS011;10279;46.388;8.116;2023-04-15T07:14:57;1.30;;;1.00;;
20241;SDS011;10279;46.388;8.116;2023-04-15T07:17:24;0.80;;;0.80;;
20241;SDS011;10279;46.388;8.116;2023-04-15T07:19:52;2.93;;;0.80;;
20241;SDS011;10279;46.388;8.116;2023-04-15T07:22:19;2.33;;;0.80;;
20241;SDS011;10279;46.388;8.116;2023-04-15T07:24:47;0.97;;;0.80;;
20241;SDS011;10279;46.388;8.116;2023-04-15T07:27:17;1.60;;;0.80;;
20241;SDS011;10279;46.388;8.116;2023-04-15T07:29:44;1.33;;;0.70;;
20241;SDS011;10279;46.388;8.116;2023-04-15T07:32:12;1.33;;;0.50;;
20241;SDS011;10279;46.388;8.116;2023-04-15T07:34:40;0.60;;;0.60;;
20241;SDS011;10279;46.388;8.116;2023-04-15T07:37:07;3.30;;;1.00;;
20241;SDS011;10279;46.388;8.116;2023-04-15T07:39:35;2.10;;;0.80;;
20241;SDS011;10279;46.388;8.116;2023-04-15T07:42:02;1.93;;;0.97;;
20241;SDS011;10279;46.388;8.116;2023-04-15T07:44:30;2.33;;;1.00;;
20241;SDS011;10279;46.388;8.116;2023-04-15T07:46:57;0.77;;;0.77;;
20241;SDS011;10279;46.388;8.116;2023-04-15T07:49:25;2.00;;;0.90;;
20241;SDS011;10279;46.388;8.116;2023-04-15T07:51:52;1.70;;;0.87;;
20241;SDS011;10279;46.388;8.116;2023-04-15T07:54:20;1.33;;;0.63;;
20241;SDS011;10279;46.388;8.116;2023-04-15T07:56:47;1.77;;;0.80;;
20241;SDS011;10279;46.388;8.116;2023-04-15T07:59:15;1.57;;;0.70;;
20241;SDS011;10279;46.388;8.116;2023-04-15T08:01:44;2.53;;;1.30;;
20241;SDS011;10279;46.388;8.116;2023-04-15T08:04:12;2.03;;;0.97;;
20241;SDS011;10279;46.388;8.116;2023-04-15T08:06:40;2.13;;;0.83;;
20241;SDS011;10279;46.388;8.116;2023-04-15T08:09:07;0.70;;;0.60;;
20241;SDS011;10279;46.388;8.116;2023-04-15T08:11:35;1.03;;;0.70;;
20241;SDS011;10279;46.388;8.116;2023-04-15T08:14:02;1.27;;;0.83;;
20241;SDS011;10279;46.388;8.116;2023-04-15T08:16:30;1.37;;;1.20;;
20241;SDS011;10279;46.388;8.116;2023-04-15T08:18:58;2.60;;;0.90;;
20241;SDS011;10279;46.388;8.116;2023-04-15T08:21:26;2.30;;;1.30;;
20241;SDS011;10279;46.388;8.116;2023-04-15T08:23:56;2.40;;;1.43;;
20241;SDS011;10279;46.388;8.116;2023-04-15T08:26:23;3.37;;;1.70;;
20241;SDS011;10279;46.388;8.116;2023-04-15T08:28:51;1.10;;;0.90;;
20241;SDS011;10279;46.388;8.116;2023-04-15T08:31:19;1.27;;;0.80;;
20241;SDS011;10279;46.388;8.116;2023-04-15T08:33:47;0.60;;;0.60;;
20241;SDS011;10279;46.388;8.116;2023-04-15T08:36:17;0.93;;;0.80;;
20241;SDS011;10279;46.388;8.116;2023-04-15T08:38:44;1.23;;;0.67;;
20241;SDS011;10279;46.388;8.116;2023-04-15T08:41:20;2.83;;;1.20;;
20241;SDS011;10279;46.388;8.116;2023-04-15T08:43:52;2.07;;;0.83;;
20241;SDS011;10279;46.388;8.116;2023-04-15T08:46:20;2.47;;;1.23;;
20241;SDS011;10279;46.388;8.116;2023-04-15T08:48:48;0.73;;;0.70;;
20241;SDS011;10279;46.388;8.116;2023-04-15T08:51:16;0.90;;;0.63;;
20241;SDS011;10279;46.388;8.116;2023-04-15T08:53:50;1.83;;;0.60;;
20241;SDS011;10279;46.388;8.116;2023-04-15T08:56:17;2.50;;;0.93;;
20241;SDS011;10279;46.388;8.116;2023-04-15T08:58:45;1.43;;;0.90;;
20241;SDS011;10279;46.388;8.116;2023-04-15T09:01:13;2.43;;;0.90;;
20241;SDS011;10279;46.388;8.116;2023-04-15T09:03:40;1.70;;;0.77;;
20241;SDS011;10279;46.388;8.116;2023-04-15T09:06:08;1.40;;;0.90;;
20241;SDS011;10279;46.388;8.116;2023-04-15T09:08:36;1.27;;;0.60;;
20241;SDS011;10279;46.388;8.116;2023-04-15T09:11:04;1.83;;;1.03;;
20241;SDS011;10279;46.388;8.116;2023-04-15T09:13:31;0.63;;;0.60;;
20241;SDS011;10279;46.388;8.116;2023-04-15T09:16:02;2.23;;;0.70;;
20241;SDS011;10279;46.388;8.116;2023-04-15T09:18:32;0.50;;;0.30;;
20241;SDS011;10279;46.388;8.116;2023-04-15T09:23:34;1.33;;;0.50;;
20241;SDS011;10279;46.388;8.116;2023-04-15T09:26:02;0.60;;;0.50;;
20241;SDS011;10279;46.388;8.116;2023-04-15T09:28:30;0.30;;;0.30;;
20241;SDS011;10279;46.388;8.116;2023-04-15T09:30:58;0.37;;;0.30;;
20241;SDS011;10279;46.388;8.116;2023-04-15T09:33:26;0.57;;;0.30;;
20241;SDS011;10279;46.388;8.116;2023-04-15T09:35:55;1.23;;;0.47;;
20241;SDS011;10279;46.388;8.116;2023-04-15T09:38:23;0.30;;;0.30;;
20241;SDS011;10279;46.388;8.116;2023-04-15T09:40:51;0.30;;;0.30;;
20241;SDS011;10279;46.388;8.116;2023-04-15T09:43:21;0.67;;;0.30;;
20241;SDS011;10279;46.388;8.116;2023-04-15T09:45:50;0.30;;;0.20;;
20241;SDS011;10279;46.388;8.116;2023-04-15T09:48:19;0.77;;;0.40;;
20241;SDS011;10279;46.388;8.116;2023-04-15T09:50:47;1.60;;;0.40;;
20241;SDS011;10279;46.388;8.116;2023-04-15T09:53:18;0.40;;;0.30;;
20241;SDS011;10279;46.388;8.116;2023-04-15T09:55:56;1.40;;;0.60;;
20241;SDS011;10279;46.388;8.116;2023-04-15T09:58:25;3.70;;;0.70;;
20241;SDS011;10279;46.388;8.116;2023-04-15T10:00:53;1.70;;;0.60;;
20241;SDS011;10279;46.388;8.116;2023-04-15T10:03:23;0.73;;;0.53;;
20241;SDS011;10279;46.388;8.116;2023-04-15T10:05:52;0.97;;;0.60;;
20241;SDS011;10279;46.388;8.116;2023-04-15T10:08:22;0.70;;;0.50;;
20241;SDS011;10279;46.388;8.116;2023-04-15T10:10:50;1.47;;;0.73;;
20241;SDS011;10279;46.388;8.116;2023-04-15T10:13:19;1.23;;;0.90;;
20241;SDS011;10279;46.388;8.116;2023-04-15T10:15:49;1.40;;;0.90;;
20241;SDS011;10279;46.388;8.116;2023-04-15T10:18:18;1.37;;;0.97;;
20241;SDS011;10279;46.388;8.116;2023-04-15T10:20:47;1.97;;;1.00;;
20241;SDS011;10279;46.388;8.116;2023-04-15T10:23:15;1.37;;;1.00;;
20241;SDS011;10279;46.388;8.116;2023-04-15T10:25:43;0.80;;;0.77;;
20241;SDS011;10279;46.388;8.116;2023-04-15T10:28:11;1.07;;;0.97;;
20241;SDS011;10279;46.388;8.116;2023-04-15T10:30:39;0.90;;;0.90;;
20241;SDS011;10279;46.388;8.116;2023-04-15T10:33:07;0.80;;;0.80;;
20241;SDS011;10279;46.388;8.116;2023-04-15T10:35:35;1.00;;;0.83;;
20241;SDS011;10279;46.388;8.116;2023-04-15T10:38:22;1.93;;;1.10;;
20241;SDS011;10279;46.388;8.116;2023-04-15T10:40:50;1.37;;;1.17;;
20241;SDS011;10279;46.388;8.116;2023-04-15T10:43:24;1.13;;;0.90;;
20241;SDS011;10279;46.388;8.116;2023-04-15T10:45:52;0.73;;;0.70;;
20241;SDS011;10279;46.388;8.116;2023-04-15T10:48:20;2.03;;;1.13;;
20241;SDS011;10279;46.388;8.116;2023-04-15T10:50:56;2.20;;;0.97;;
20241;SDS011;10279;46.388;8.116;2023-04-15T10:53:27;1.00;;;1.00;;
20241;SDS011;10279;46.388;8.116;2023-04-15T10:55:55;2.43;;;1.40;;
20241;SDS011;10279;46.388;8.116;2023-04-15T10:58:24;1.53;;;1.10;;
20241;SDS011;10279;46.388;8.116;2023-04-15T11:00:52;1.03;;;0.70;;
20241;SDS011;10279;46.388;8.116;2023-04-15T11:03:35;1.33;;;0.70;;
20241;SDS011;10279;46.388;8.116;2023-04-15T11:06:05;1.17;;;0.70;;
20241;SDS011;10279;46.388;8.116;2023-04-15T11:11:18;2.20;;;1.00;;
20241;SDS011;10279;46.388;8.116;2023-04-15T11:13:51;0.70;;;0.70;;
20241;SDS011;10279;46.388;8.116;2023-04-15T11:16:20;0.70;;;0.70;;
20241;SDS011;10279;46.388;8.116;2023-04-15T11:18:54;0.53;;;0.50;;
20241;SDS011;10279;46.388;8.116;2023-04-15T11:21:25;0.50;;;0.50;;
20241;SDS011;10279;46.388;8.116;2023-04-15T11:23:53;0.50;;;0.50;;
20241;SDS011;10279;46.388;8.116;2023-04-15T11:26:24;0.67;;;0.57;;
20241;SDS011;10279;46.388;8.116;2023-04-15T11:28:52;0.50;;;0.50;;
20241;SDS011;10279;46.388;8.116;2023-04-15T11:31:20;1.27;;;0.67;;
20241;SDS011;10279;46.388;8.116;2023-04-15T11:33:53;0.40;;;0.40;;
20241;SDS011;10279;46.388;8.116;2023-04-15T11:36:25;1.13;;;0.53;;
20241;SDS011;10279;46.388;8.116;2023-04-15T11:38:53;0.60;;;0.60;;
20241;SDS011;10279;46.388;8.116;2023-04-15T11:41:21;0.80;;;0.70;;
20241;SDS011;10279;46.388;8.116;2023-04-15T11:43:49;0.60;;;0.57;;
20241;SDS011;10279;46.388;8.116;2023-04-15T11:46:17;0.60;;;0.60;;
20241;SDS011;10279;46.388;8.116;2023-04-15T11:48:45;0.43;;;0.43;;
20241;SDS011;10279;46.388;8.116;2023-04-15T11:51:13;0.40;;;0.40;;
20241;SDS011;10279;46.388;8.116;2023-04-15T11:56:16;0.60;;;0.40;;
20241;SDS011;10279;46.388;8.116;2023-04-15T11:58:43;0.47;;;0.40;;
20241;SDS011;10279;46.388;8.116;2023-04-15T12:01:12;0.40;;;0.40;;
20241;SDS011;10279;46.388;8.116;2023-04-15T12:03:40;0.53;;;0.53;;
20241;SDS011;10279;46.388;8.116;2023-04-15T12:06:16;0.93;;;0.63;;
20241;SDS011;10279;46.388;8.116;2023-04-15T12:11:14;0.53;;;0.43;;
20241;SDS011;10279;46.388;8.116;2023-04-15T12:13:49;4.70;;;1.97;;
20241;SDS011;10279;46.388;8.116;2023-04-15T12:16:20;0.57;;;0.57;;
20241;SDS011;10279;46.388;8.116;2023-04-15T12:18:51;0.50;;;0.50;;
20241;SDS011;10279;46.388;8.116;2023-04-15T12:21:21;0.40;;;0.40;;
20241;SDS011;10279;46.388;8.116;2023-04-15T12:23:55;0.67;;;0.60;;
20241;SDS011;10279;46.388;8.116;2023-04-15T12:26:28;1.40;;;0.90;;
20241;SDS011;10279;46.388;8.116;2023-04-15T12:29:05;0.63;;;0.63;;
20241;SDS011;10279;46.388;8.116;2023-04-15T12:31:34;0.60;;;0.60;;
20241;SDS011;10279;46.388;8.116;2023-04-15T12:34:06;0.33;;;0.33;;
20241;SDS011;10279;46.388;8.116;2023-04-15T12:36:34;0.30;;;0.30;;
20241;SDS011;10279;46.388;8.116;2023-04-15T12:39:02;1.07;;;0.40;;
20241;SDS011;10279;46.388;8.116;2023-04-15T12:41:31;0.27;;;0.20;;
20241;SDS011;10279;46.388;8.116;2023-04-15T12:43:58;0.40;;;0.40;;
20241;SDS011;10279;46.388;8.116;2023-04-15T12:46:26;0.20;;;0.20;;
20241;SDS011;10279;46.388;8.116;2023-04-15T12:48:53;0.10;;;0.10;;
20241;SDS011;10279;46.388;8.116;2023-04-15T12:51:21;0.20;;;0.20;;
20241;SDS011;10279;46.388;8.116;2023-04-15T12:53:50;1.50;;;0.30;;
20241;SDS011;10279;46.388;8.116;2023-04-15T12:56:18;0.30;;;0.30;;
20241;SDS011;10279;46.388;8.116;2023-04-15T12:58:45;0.73;;;0.20;;
20241;SDS011;10279;46.388;8.116;2023-04-15T13:01:12;0.10;;;0.10;;
20241;SDS011;10279;46.388;8.116;2023-04-15T13:03:40;0.10;;;0.10;;
20241;SDS011;10279;46.388;8.116;2023-04-15T13:06:08;0.10;;;0.10;;
20241;SDS011;10279;46.388;8.116;2023-04-15T13:08:35;0.20;;;0.20;;
20241;SDS011;10279;46.388;8.116;2023-04-15T13:11:10;0.10;;;0.10;;
20241;SDS011;10279;46.388;8.116;2023-04-15T13:13:38;0.10;;;0.10;;
20241;SDS011;10279;46.388;8.116;2023-04-15T13:16:05;0.60;;;0.10;;
20241;SDS011;10279;46.388;8.116;2023-04-15T13:18:33;0.20;;;0.17;;
20241;SDS011;10279;46.388;8.116;2023-04-15T13:21:01;0.10;;;0.10;;
20241;SDS011;10279;46.388;8.116;2023-04-15T13:23:30;0.10;;;0.10;;
20241;SDS011;10279;46.388;8.116;2023-04-15T13:25:58;0.10;;;0.10;;
20241;SDS011;10279;46.388;8.116;2023-04-15T13:28:25;0.10;;;0.10;;
20241;SDS011;10279;46.388;8.116;2023-04-15T13:30:53;0.07;;;0.07;;
20241;SDS011;10279;46.388;8.116;2023-04-15T13:33:20;0.10;;;0.10;;
20241;SDS011;10279;46.388;8.116;2023-04-15T13:35:48;0.03;;;0.03;;
20241;SDS011;10279;46.388;8.116;2023-04-15T13:38:15;0.10;;;0.10;;
20241;SDS011;10279;46.388;8.116;2023-04-15T13:40:43;0.10;;;0.10;;
20241;SDS011;10279;46.388;8.116;2023-04-15T13:43:10;0.10;;;0.10;;
20241;SDS011;10279;46.388;8.116;2023-04-15T13:45:38;0.00;;;0.00;;
20241;SDS011;10279;46.388;8.116;2023-04-15T13:48:05;0.00;;;0.00;;
20241;SDS011;10279;46.388;8.116;2023-04-15T13:50:33;0.10;;;0.10;;
20241;SDS011;10279;46.388;8.116;2023-04-15T13:53:00;0.10;;;0.10;;
20241;SDS011;10279;46.388;8.116;2023-04-15T13:55:28;0.10;;;0.10;;
20241;SDS011;10279;46.388;8.116;2023-04-15T13:57:55;0.10;;;0.10;;
20241;SDS011;10279;46.388;8.116;2023-04-15T14:00:23;0.43;;;0.20;;
20241;SDS011;10279;46.388;8.116;2023-04-15T14:02:50;0.10;;;0.10;;
20241;SDS011;10279;46.388;8.116;2023-04-15T14:05:18;0.10;;;0.10;;
20241;SDS011;10279;46.388;8.116;2023-04-15T14:07:46;0.10;;;0.10;;
20241;SDS011;10279;46.388;8.116;2023-04-15T14:10:13;0.10;;;0.10;;
20241;SDS011;10279;46.388;8.116;2023-04-15T14:12:40;0.10;;;0.10;;
20241;SDS011;10279;46.388;8.116;2023-04-15T14:15:08;0.03;;;0.03;;
20241;SDS011;10279;46.388;8.116;2023-04-15T14:17:35;0.00;;;0.00;;
20241;SDS011;10279;46.388;8.116;2023-04-15T14:20:05;0.10;;;0.10;;
20241;SDS011;10279;46.388;8.116;2023-04-15T14:22:33;0.00;;;0.00;;
20241;SDS011;10279;46.388;8.116;2023-04-15T14:25:00;0.10;;;0.10;;
20241;SDS011;10279;46.388;8.116;2023-04-15T14:27:28;0.00;;;0.00;;
20241;SDS011;10279;46.388;8.116;2023-04-15T14:29:55;0.00;;;0.00;;
20241;SDS011;10279;46.388;8.116;2023-04-15T14:32:24;0.00;;;0.00;;
20241;SDS011;10279;46.388;8.116;2023-04-15T14:34:52;0.10;;;0.10;;
20241;SDS011;10279;46.388;8.116;2023-04-15T14:37:19;0.10;;;0.10;;
20241;SDS011;10279;46.388;8.116;2023-04-15T14:39:47;0.10;;;0.10;;
20241;SDS011;10279;46.388;8.116;2023-04-15T14:42:14;0.10;;;0.10;;
20241;SDS011;10279;46.388;8.116;2023-04-15T14:44:42;0.17;;;0.10;;
20241;SDS011;10279;46.388;8.116;2023-04-15T14:47:10;0.10;;;0.10;;
20241;SDS011;10279;46.388;8.116;2023-04-15T14:49:37;0.10;;;0.10;;
20241;SDS011;10279;46.388;8.116;2023-04-15T14:52:05;0.10;;;0.10;;
20241;SDS011;10279;46.388;8.116;2023-04-15T14:54:32;0.60;;;0.60;;
20241;SDS011;10279;46.388;8.116;2023-04-15T14:56:59;0.10;;;0.10;;
20241;SDS011;10279;46.388;8.116;2023-04-15T14:59:30;0.00;;;0.00;;
20241;SDS011;10279;46.388;8.116;2023-04-15T15:01:57;0.20;;;0.10;;
20241;SDS011;10279;46.388;8.116;2023-04-15T15:04:25;0.50;;;0.10;;